LEIB/IBZ METAR and TAF weather

Enter ICAO airport designator
Station Type Date Time Source
LEIB METAR 2020/09/19 06:30 UTC NOAA

LEIB 190630Z 29002KT 9999 FEW020 22/22 Q1014 NOSIG


Station Type Date Time Source
LEIB Decoded METAR 2020/09/19 06:30 UTC NOAA

Ibiza / Es Codola, Spain (LEIB) 38-52N 001-23E 12M
Sep 19, 2020 - 02:30 AM EDT / 2020.09.19 0630 UTC
Wind: from the WNW (290 degrees) at 2 MPH (2 KT):0
Visibility: greater than 7 mile(s):0
Sky conditions: mostly clear
Temperature: 71 F (22 C)
Dew Point: 71 F (22 C)
Relative Humidity: 100%
Pressure (altimeter): 29.94 in. Hg (1014 hPa)
ob: LEIB 190630Z 29002KT 9999 FEW020 22/22 Q1014 NOSIG
cycle: 6

Station Type Date Time Source
LEIB TAF 2020/09/19 03:27 UTC NOAA

TAF LEIB 190200Z 1903/2003 VRB05KT 9999 FEW020 TX29/1912Z TN21/1905Z
BECMG 1907/1909 29010KT PROB40
TEMPO 1903/1904 TS FEW040CB

Example: see airport list